Punta Arenas, Chile
Current Conditions -  °F | °C
As of 3:00 PM on Friday 19 Dec 2014 (Local Time) from SCCI Reporting Station
Scattered Clouds Scattered Clouds  
Wind Chill: 50°   Ceiling: Unl
Heat Index: 50°   Visibility: 6mi
Dew Point: 30°   Wind: 28mph
Humidity: 47%   Direction: 240°WSW
Pressure: 29.09"   Gusts: NA
Location:  53.16°S, 70.93°W
Report Text: SCCI 191800Z 24024KT 9999 SCT030 SCT070 10/M01 Q0985 NOSIG
Loading
Personal Weather Stations






























Interactive Weather Map New forecast layout! Learn more

10-Day Weather Forecast

Advertisements
Track Severe Weather on mobile